Information Last Ob Photographs Meteogram Network Table Neighbors Monthly Summaries Observation History Wind Roses Custom Wind Roses Data Calendar Satellite Cloud Product Download

01 September 2021 Observation History, [NYC] NEW YORK CITY, timezone: America/New_York

Select Date: Time Order:

Show METARs   Show High Frequency MADIS

Previous DayNext Day
Time Wind
(mph)
Vis.
(mi.)
Sky Cond.
(100s ft)
Present Wx Temperature (ºF) Relative
Humidity
Pressure Snow
Depth
(in)
Precipitation (in.)
Air Dwpt Feels Like 6 hour altimeter
(in.)
sea level
(mb)
1 hr 3 hr 6 hr
Max.Min.
12:51 AMVRB 310 OVC100
786278 58% 29.8310090
KNYC 010451Z AUTO VRB03KT 10SM OVC100 26/17 A2983 RMK AO2 SLP090 T02560167 402830228 $
1:51 AMCalm10 OVC110
776377 80 77 62% 29.821008.80
KNYC 010551Z 00000KT 10SM OVC110 25/17 A2982 RMK AO2 SLP088 T02500172 10267 20250 58002 $
2:51 AMCalm10 OVC110
766376 64% 29.811008.60
KNYC 010651Z 00000KT 10SM OVC110 24/17 A2981 RMK AO2 SLP086 T02440172 $
3:51 AMCalm10 FEW070
OVC095
-RA766376 64% 29.821008.9T
KNYC 010751Z 00000KT 10SM -RA FEW070 OVC095 24/17 A2982 RMK AO2 RAB50 SLP089 P0000 T02440172 $
4:51 AMCalm10 OVC100
746574 73% 29.821008.7TT
KNYC 010851Z 00000KT 10SM OVC100 23/18 A2982 RMK AO2 RAE44 SLP087 P0000 60000 T02330183 56001 $
5:51 AMWNW 310 OVC110
-RA736673 79% 29.841009.5T
KNYC 010951Z 29003KT 10SM -RA OVC110 23/19 A2984 RMK AO2 RAB01E10B40 SLP095 P0000 T02280189 $
6:51 AMCalm8 OVC110
-RA706570 84% 29.851009.90.02
KNYC 011051Z 00000KT 8SM -RA OVC110 21/18 A2985 RMK AO2 SLP099 P0002 T02110183 $
7:51 AMNNE 53 BKN110
RA BR706670 77 69 87% 29.8610100.050.07
KNYC 011151Z 03004KT 3SM RA BR BKN110 21/19 A2986 RMK AO2 SLP100 P0005 60007 70007 T02110189 10250 20206 51013 $
8:51 AMVRB 33 OVC110
-RA BR706870 93% 29.841009.50.03
KNYC 011251Z VRB03KT 3SM -RA BR OVC110 21/20 A2984 RMK AO2 SLP095 P0003 T02110200 $
8:58 AMNNE 52 FEW050
OVC110
-RA BR706870 93% 29.84T
KNYC 011258Z 03004KT 2SM -RA BR FEW050 OVC110 21/20 A2984 RMK AO2 P0000 T02110200 $
9:18 AMNE 71.75 SCT047
BKN070
OVC110
-RA BR706870 93% 29.830.03
KNYC 011318Z 05006KT 1 3/4SM -RA BR SCT047 BKN070 OVC110 21/20 A2983 RMK AO2 P0003 T02110200 $
9:23 AMNE 73 SCT045
BKN070
OVC110
-RA BR706770 90% 29.820.03
KNYC 011323Z 05006KT 3SM -RA BR SCT045 BKN070 OVC110 21/19 A2982 RMK AO2 P0003 T02110194 $
9:51 AMENE 93 SCT012
BKN038
OVC090
BR716871 90% 29.841009.30.03
KNYC 011351Z 06008KT 3SM BR SCT012 BKN038 OVC090 22/20 A2984 RMK AO2 RAE50 SLP093 P0003 T02170200 $
10:51 AMENE 79 FEW013
SCT070
BKN110
716671 84% 29.841009.500.06
KNYC 011451Z AUTO 06006KT 9SM FEW013 SCT070 BKN110 22/19 A2984 RMK AO2 SLP095 60006 T02170189 55004 $
11:51 AMENE 13G 1810 FEW046
BKN060
BKN110
716571 81% 29.811008.6T
KNYC 011551Z AUTO 06011G16KT 10SM FEW046 BKN060 BKN110 22/18 A2981 RMK AO2 RAB06E26 SLP086 P0000 T02170183 $
12:51 PME 10G 2210 SCT047
SCT055
BKN075
716571 81% 29.81008.20
KNYC 011651Z AUTO 08009G19KT 060V120 10SM SCT047 SCT055 BKN075 22/18 A2980 RMK AO2 SLP082 T02170183 $
1:14 PMENE 8G 2010 BKN023
OVC044
716571 81% 29.80
KNYC 011714Z AUTO 06007G17KT 10SM BKN023 OVC044 22/18 A2980 RMK AO2 T02170183 $
1:51 PMENE 15G 2310 FEW020
OVC029
726572 72 70 78% 29.791007.700.06
KNYC 011751Z AUTO 07013G20KT 10SM FEW020 OVC029 22/18 A2979 RMK AO2 SLP077 60006 T02220183 10222 20211 56018 $
2:51 PMENE 12G 2410 OVC015
726672 81% 29.771007.20
KNYC 011851Z AUTO 06010G21KT 040V120 10SM OVC015 22/19 A2977 RMK AO2 SLP072 T02220189 $
3:12 PMENE 13G 2310 OVC014
726672 81% 29.760
KNYC 011912Z AUTO 06011G20KT 030V090 10SM OVC014 22/19 A2976 RMK AO2 T02220189 $
3:51 PMVRB 510 BKN013
OVC018
726672 81% 29.741006.20
KNYC 011951Z AUTO VRB04KT 10SM BKN013 OVC018 22/19 A2974 RMK AO2 SLP062 T02220189 $
4:51 PMENE 17G 2910 OVC012
716671 84% 29.761006.80
KNYC 012051Z AUTO 06015G25KT 10SM OVC012 22/19 A2976 RMK AO2 SLP068 T02170189 55010 $
5:22 PMENE 17G 311.5 OVC012
+RA BR706670 87% 29.750.03
KNYC 012122Z AUTO 07015G27KT 1 1/2SM +RA BR OVC012 21/19 A2975 RMK AO2 PK WND 06027/2121 RAB16 P0003 T02110189 $
5:31 PMENE 15G 250.75 OVC012
RA BR686668 93% 29.740.13
KNYC 012131Z AUTO 07013G22KT 040V110 3/4SM RA BR OVC012 20/19 A2974 RMK AO2 PK WND 06027/2121 RAB16 P0013 T02000189 $
5:36 PME 9G 252 OVC012
-RA BR696669 90% 29.740.13
KNYC 012136Z AUTO 08008G22KT 040V110 2SM -RA BR OVC012 21/19 A2974 RMK AO2 PK WND 06027/2121 RAB16 P0013 T02060189 $
5:47 PMENE 10G 211.75 OVC011
RA BR706670 88% 29.730.18
KNYC 012147Z AUTO 06009G18KT 1 3/4SM RA BR OVC011 21/19 A2973 RMK AO2 PK WND 06027/2121 RAB16 CIG 008V014 P0018 $
5:51 PMENE 14G 252 OVC011
RA BR686668 93% 29.731005.70.19
KNYC 012151Z AUTO 07012G22KT 020V090 2SM RA BR OVC011 20/19 A2973 RMK AO2 PK WND 06027/2121 RAB16 CIG 008V014 SLP057 P0019 T02000189 $
6:08 PMVRB 71.25 OVC010
+RA BR686668 93% 29.690.07
KNYC 012208Z AUTO VRB06G20KT 1 1/4SM +RA BR OVC010 20/19 A2969 RMK AO2 CIG 007V013 P0007 T02000189 $
6:19 PMCalm1 OVC009
+RA BR686668 93% 29.690.17
KNYC 012219Z AUTO 1SM +RA BR OVC009 20/19 A2969 RMK AO2 CIG 007V013 P0017 T02000189 $
6:32 PMENE 16G 322 OVC010
-RA BR686568 90% 29.690.25
KNYC 012232Z AUTO 06014G28KT 2SM -RA BR OVC010 20/18 A2969 RMK AO2 PK WND 08028/2225 CIG 007V012 P0025 T02000183 $
6:44 PMCalm1.75 OVC009
RA BR686668 93% 29.680.28
KNYC 012244Z AUTO 1 3/4SM RA BR OVC009 20/19 A2968 RMK AO2 PK WND 08028/2225 P0028 T02000189 $
6:51 PMCalm1 OVC009
RA BR686668 93% 29.661003.60.32
KNYC 012251Z AUTO 1SM RA BR OVC009 20/19 A2966 RMK AO2 PK WND 08028/2225 PRESFR SLP036 P0032 T02000189 $
7:22 PMENE 13G 310.5 OVC006
+RA FG676667 97% 29.640.33
KNYC 012322Z AUTO 06011G27KT 020V090 1/2SM +RA FG OVC006 19/19 A2964 RMK AO2 PK WND 04030/2257 P0033 T01940189 $
7:35 PMENE 16G 281 OVC006
+RA BR676567 93% 29.60.43
KNYC 012335Z AUTO 07014G24KT 030V120 1SM +RA BR OVC006 19/18 A2960 RMK AO2 PK WND 04030/2257 PRESFR P0043 T01940183 $
7:51 PME 13G 241.25 OVC006
+RA BR676567 72 67 93% 29.591001.10.561.07
KNYC 012351Z AUTO 09011G21KT 040V150 1 1/4SM +RA BR OVC006 19/18 A2959 RMK AO2 PK WND 04030/2257 SLP011 P0056 60107 T01940183 10222 20194 58046 $
8:12 PMENE 22G 390.5 OVC005
+RA FG676567 93% 29.560.24
KNYC 020012Z AUTO 07019G34KT 050V110 1/2SM +RA FG OVC005 19/18 A2956 RMK AO2 PK WND 05035/2356 P0024 T01940183 $
8:32 PMCalm1.25 OVC006
+RA BR686668 93% 29.560.46
KNYC 020032Z AUTO 1 1/4SM +RA BR OVC006 20/19 A2956 RMK AO2 PK WND 05035/2356 P0046 T02000189 $
8:51 PME 14G 262 BKN006
OVC013
RA BR696869 96% 29.49997.70.55
KNYC 020051Z AUTO 08012G23KT 2SM RA BR BKN006 OVC013 21/20 A2949 RMK AO2 PK WND 05035/2356 VIS 1 1/2V3 CIG 005V009 PRESFR SLP977 P0055 T02060200 $
8:59 PMW 17G 381 BKN008
OVC013
+RA BR696769 93% 29.590.04
KNYC 020059Z AUTO 26015G33KT 240V310 1SM +RA BR BKN008 OVC013 21/19 A2959 RMK AO2 PK WND 26033/0058 PRESRR P0004 T02060194 $
9:06 PMCalm0.25 BKN008
OVC013
+RA FG666466 93% 29.560.43
KNYC 020106Z AUTO 1/4SM +RA FG BKN008 OVC013 19/18 A2956 RMK AO2 PK WND 26033/0058 P0043 T01890178 $
9:51 PMVRB 50.25 VV 006
+RA FG676567 93% 29.591000.93.15
KNYC 020151Z AUTO VRB04G15KT 1/4SM +RA FG VV006 19/18 A2959 RMK AO2 PK WND 26033/0058 SLP009 P0315 T01940183 $
10:17 PMNNE 13G 301.25 OVC007
RA BR666466 93% 29.550.68
KNYC 020217Z AUTO 02011G26KT 310V080 1 1/4SM RA BR OVC007 19/18 A2955 RMK AO2 PK WND 03026/0213 P0068 T01890178 $
10:30 PMNE 16G 290.75 BKN006
OVC012
+RA BR666466 93% 29.550.93
KNYC 020230Z AUTO 04014G25KT 350V070 3/4SM +RA BR BKN006 OVC012 19/18 A2955 RMK AO2 PK WND 03026/0213 P0093 T01890178 $
10:41 PMENE 10G 320.5 SCT006
OVC012
+RA FG656365 94% 29.551.22
KNYC 020241Z AUTO 07009G28KT 040V100 1/2SM +RA FG SCT006 OVC012 18/17 A2955 RMK AO2 PK WND 06028/0236 P0122 T01830172 $
10:49 PMNNE 12G 250.5 VV 009
+RA FG646364 94% 29.561.45
KNYC 020249Z AUTO 03010G22KT 010V080 1/2SM +RA FG VV009 18/17 A2956 RMK AO2 PK WND 06028/0236 P0145 $
10:51 PMNNE 12G 290.5 VV 009
+RA FG656365 94% 29.561000.21.55.2
KNYC 020251Z AUTO 03010G25KT 010V070 1/2SM +RA FG VV009 18/17 A2956 RMK AO2 PK WND 06028/0236 SLP002 P0150 60520 T01830172 50024 $
11:09 PMVRB 61.25 OVC007
+RA BR656365 94% 29.580.27
KNYC 020309Z AUTO VRB05KT 1 1/4SM +RA BR OVC007 18/17 A2958 RMK AO2 P0027 T01830172 $
11:34 PMVRB 62 OVC009
RA BR646364 97% 29.580.42
KNYC 020334Z AUTO VRB05G14KT 2SM RA BR OVC009 18/17 A2958 RMK AO2 P0042 T01780172 $
11:44 PMVRB 61.25 OVC009
+RA BR646264 94% 29.580.49
KNYC 020344Z AUTO VRB05KT 1 1/4SM +RA BR OVC009 18/17 A2958 RMK AO2 P0049 T01780167 $
11:51 PMNNE 91.25 OVC010
+RA BR646264 94% 29.581000.80.55
KNYC 020351Z AUTO 02008KT 350V050 1 1/4SM +RA BR OVC010 18/17 A2958 RMK AO2 SLP008 P0055 T01780167 $

The IEM API webservice that provided data to this page. For more details, see documentation.

Data Notes

  • For recent years, this page also optionally shows observations from the MADIS High Frequency METAR dataset. This dataset had a problem with temperatures detailed here.